createdAt,value
2022-09-03T00:00:51.915Z,18.93
2022-09-03T00:03:21.253Z,18.86
2022-09-03T00:05:51.781Z,18.91
2022-09-03T00:08:23.287Z,18.91
2022-09-03T00:10:54.345Z,18.91
2022-09-03T00:13:24.430Z,18.86
2022-09-03T00:15:54.646Z,18.93
2022-09-03T00:18:24.842Z,18.97
2022-09-03T00:20:54.970Z,19.00
2022-09-03T00:23:23.414Z,19.10
2022-09-03T00:25:53.505Z,19.21
2022-09-03T00:28:24.309Z,19.25
2022-09-03T00:30:57.604Z,19.24
2022-09-03T00:33:27.676Z,19.24
2022-09-03T00:35:56.675Z,19.35
2022-09-03T00:38:24.209Z,19.34
2022-09-03T00:41:03.328Z,19.29
2022-09-03T00:43:39.461Z,19.29
2022-09-03T00:46:17.118Z,19.31
2022-09-03T00:48:49.144Z,19.30
2022-09-03T00:51:29.206Z,19.33
2022-09-03T00:54:01.500Z,19.33
2022-09-03T00:56:37.148Z,19.31
2022-09-03T00:59:12.490Z,19.32
2022-09-03T01:01:47.225Z,19.33
2022-09-03T01:04:36.421Z,19.39
2022-09-03T01:07:10.005Z,19.38
2022-09-03T01:09:48.986Z,19.37
2022-09-03T01:12:20.120Z,19.38
2022-09-03T01:14:53.299Z,19.34
2022-09-03T01:17:28.350Z,19.33
2022-09-03T01:20:11.475Z,19.25
2022-09-03T01:22:49.317Z,19.25
2022-09-03T01:25:18.519Z,19.18
2022-09-03T01:27:53.265Z,19.09
2022-09-03T01:30:24.017Z,18.90
2022-09-03T01:32:57.705Z,18.75
2022-09-03T01:35:30.218Z,18.72
2022-09-03T01:38:06.764Z,18.71
2022-09-03T01:40:39.374Z,18.78
2022-09-03T01:43:15.793Z,18.72
2022-09-03T01:45:51.524Z,18.93
2022-09-03T01:48:31.945Z,19.00
2022-09-03T01:51:04.509Z,18.96
2022-09-03T01:53:38.984Z,18.99
2022-09-03T01:56:18.576Z,18.86
2022-09-03T01:58:50.213Z,18.98
2022-09-03T02:01:23.210Z,18.83
2022-09-03T02:03:50.978Z,18.84
2022-09-03T02:06:20.642Z,18.77
2022-09-03T02:08:48.111Z,18.86
2022-09-03T02:11:15.748Z,18.91
2022-09-03T02:13:46.096Z,18.95
2022-09-03T02:16:15.191Z,18.97
2022-09-03T02:18:46.042Z,18.92
2022-09-03T02:21:16.278Z,18.79
2022-09-03T02:23:43.768Z,18.74
2022-09-03T02:26:13.062Z,18.76
2022-09-03T02:28:40.528Z,18.58
2022-09-03T02:31:08.252Z,18.66
2022-09-03T02:33:37.995Z,18.72
2022-09-03T02:36:08.440Z,18.54
2022-09-03T02:38:35.959Z,18.55
2022-09-03T02:41:03.877Z,18.61
2022-09-03T02:43:35.274Z,18.63
2022-09-03T02:46:03.359Z,18.62
2022-09-03T02:48:30.876Z,18.53
2022-09-03T02:50:58.445Z,18.43
2022-09-03T02:53:28.278Z,18.34
2022-09-03T02:55:58.612Z,18.27
2022-09-03T02:58:26.287Z,18.16
2022-09-03T03:00:53.948Z,18.11
2022-09-03T03:03:21.940Z,18.04
2022-09-03T03:05:50.599Z,18.10
2022-09-03T03:08:21.415Z,18.09
2022-09-03T03:10:52.097Z,18.06
2022-09-03T03:13:19.778Z,18.03
2022-09-03T03:15:47.835Z,17.99
2022-09-03T03:18:15.414Z,17.95
2022-09-03T03:20:44.241Z,18.01
2022-09-03T03:23:11.946Z,17.95
2022-09-03T03:25:40.052Z,17.91
2022-09-03T03:28:09.138Z,18.09
2022-09-03T03:30:38.497Z,18.00
2022-09-03T03:33:06.037Z,18.01
2022-09-03T03:35:33.674Z,18.11
2022-09-03T03:38:01.182Z,18.16
2022-09-03T03:40:28.683Z,18.21
2022-09-03T03:42:58.415Z,18.15
2022-09-03T03:45:27.252Z,18.19
2022-09-03T03:47:58.036Z,18.14
2022-09-03T03:50:26.104Z,18.14
2022-09-03T03:52:53.588Z,18.15
2022-09-03T03:55:21.074Z,18.08
2022-09-03T03:57:48.568Z,18.12
2022-09-03T04:00:16.693Z,18.01
2022-09-03T04:02:46.974Z,17.85
2022-09-03T04:05:14.534Z,17.74
2022-09-03T04:07:42.006Z,17.78
2022-09-03T04:10:10.077Z,17.79
2022-09-03T04:12:37.639Z,17.81
2022-09-03T04:15:06.782Z,17.95
2022-09-03T04:17:34.251Z,17.98
2022-09-03T04:20:03.259Z,17.96
2022-09-03T04:22:30.734Z,17.98
2022-09-03T04:24:58.184Z,18.06
2022-09-03T04:27:25.809Z,18.10
2022-09-03T04:29:53.266Z,18.07
2022-09-03T04:32:38.350Z,18.10
2022-09-03T04:35:07.557Z,17.90
2022-09-03T04:37:35.018Z,17.80
2022-09-03T04:40:02.584Z,17.65
2022-09-03T04:42:30.134Z,17.20
2022-09-03T04:44:57.666Z,16.97
2022-09-03T04:47:25.128Z,16.83
2022-09-03T04:49:54.029Z,16.80
2022-09-03T04:52:22.830Z,16.79
2022-09-03T04:54:50.291Z,16.53
2022-09-03T04:57:17.925Z,16.54
2022-09-03T04:59:45.355Z,16.37
2022-09-03T05:02:13.985Z,16.36
2022-09-03T05:04:41.594Z,16.07
2022-09-03T05:07:09.976Z,16.15
2022-09-03T05:09:38.993Z,16.14
2022-09-03T05:12:07.637Z,16.29
2022-09-03T05:14:35.470Z,16.33
2022-09-03T05:17:03.118Z,16.12
2022-09-03T05:19:31.454Z,15.94
2022-09-03T05:21:59.054Z,16.11
2022-09-03T05:24:26.951Z,16.09
2022-09-03T05:26:56.002Z,15.92
2022-09-03T05:29:24.210Z,15.82
2022-09-03T05:31:51.942Z,15.91
2022-09-03T05:34:19.657Z,15.89
2022-09-03T05:36:49.818Z,16.06
2022-09-03T05:39:17.663Z,16.08
2022-09-03T05:41:45.750Z,16.12
2022-09-03T05:44:15.098Z,16.33
2022-09-03T05:46:42.774Z,16.43
2022-09-03T05:49:11.610Z,16.50
2022-09-03T05:51:40.355Z,16.27
2022-09-03T05:54:08.578Z,16.20
2022-09-03T05:56:39.661Z,16.25
2022-09-03T05:59:09.278Z,16.26
2022-09-03T06:01:40.035Z,16.24
2022-09-03T06:04:09.579Z,16.19
2022-09-03T06:06:39.305Z,16.13
2022-09-03T06:09:09.229Z,16.14
2022-09-03T06:11:37.822Z,16.11
2022-09-03T06:14:08.465Z,15.91
2022-09-03T06:16:39.913Z,15.80
2022-09-03T06:19:10.786Z,15.90
2022-09-03T06:21:42.738Z,15.88
2022-09-03T06:24:11.998Z,15.93
2022-09-03T06:26:41.041Z,16.03
2022-09-03T06:29:11.200Z,16.00
2022-09-03T06:31:40.506Z,15.92
2022-09-03T06:34:08.589Z,15.77
2022-09-03T06:36:36.291Z,15.83
2022-09-03T06:39:04.598Z,15.86
2022-09-03T06:41:35.371Z,15.65
2022-09-03T06:44:05.466Z,16.03
2022-09-03T06:46:34.813Z,16.11
2022-09-03T06:49:04.388Z,16.17
2022-09-03T06:51:33.987Z,16.21
2022-09-03T06:54:03.924Z,16.35
2022-09-03T06:56:37.311Z,16.54
2022-09-03T06:59:08.828Z,16.65
2022-09-03T07:01:37.357Z,16.47
2022-09-03T07:04:06.753Z,16.40
2022-09-03T07:06:38.499Z,16.51
2022-09-03T07:09:06.485Z,16.37
2022-09-03T07:11:35.857Z,16.17
2022-09-03T07:14:04.998Z,16.45
2022-09-03T07:16:35.360Z,16.89
2022-09-03T07:19:04.555Z,16.77
2022-09-03T07:21:36.691Z,17.01
2022-09-03T07:24:06.120Z,16.93
2022-09-03T07:26:35.888Z,17.35
2022-09-03T07:29:04.051Z,17.31
2022-09-03T07:31:33.967Z,17.34
2022-09-03T07:34:05.075Z,17.22
2022-09-03T07:36:43.142Z,17.34
2022-09-03T07:39:12.362Z,17.42
2022-09-03T07:41:42.686Z,17.28
2022-09-03T07:44:10.607Z,17.77
2022-09-03T07:46:40.468Z,17.53
2022-09-03T07:49:08.392Z,17.82
2022-09-03T07:51:39.481Z,17.81
2022-09-03T07:54:10.752Z,17.68
2022-09-03T07:56:39.357Z,18.01
2022-09-03T07:59:07.446Z,18.02
2022-09-03T08:01:36.935Z,18.22
2022-09-03T08:04:10.914Z,18.27
2022-09-03T08:06:40.995Z,18.36
2022-09-03T08:09:11.300Z,18.51
2022-09-03T08:11:41.552Z,18.75
2022-09-03T08:14:11.687Z,18.93
2022-09-03T08:16:41.852Z,19.06
2022-09-03T08:19:11.199Z,18.88
2022-09-03T08:21:42.164Z,18.76
2022-09-03T08:24:11.227Z,19.01
2022-09-03T08:26:41.616Z,18.63
2022-09-03T08:29:10.423Z,18.84
2022-09-03T08:31:38.690Z,19.04
2022-09-03T08:34:08.073Z,19.01
2022-09-03T08:36:38.220Z,19.01
2022-09-03T08:39:09.953Z,19.50
2022-09-03T08:41:50.289Z,19.79
2022-09-03T08:44:25.130Z,19.82
2022-09-03T08:46:56.848Z,19.17
2022-09-03T08:49:32.183Z,19.54
2022-09-03T08:52:03.508Z,20.30
2022-09-03T08:54:33.946Z,20.78
2022-09-03T08:57:03.776Z,20.82
2022-09-03T08:59:33.124Z,20.91
2022-09-03T09:02:12.117Z,20.69
2022-09-03T09:04:54.746Z,20.75
2022-09-03T09:07:28.460Z,21.08
2022-09-03T09:10:04.482Z,21.65
2022-09-03T09:12:44.196Z,21.60
2022-09-03T09:15:20.921Z,21.52
2022-09-03T09:17:58.809Z,21.33
2022-09-03T09:20:36.846Z,21.64
2022-09-03T09:23:06.819Z,21.87
2022-09-03T09:25:42.973Z,21.77
2022-09-03T09:28:17.940Z,21.43
2022-09-03T09:30:47.451Z,21.72
2022-09-03T09:33:15.847Z,21.41
2022-09-03T09:35:43.974Z,21.61
2022-09-03T09:38:13.151Z,21.44
2022-09-03T09:40:46.439Z,21.19
2022-09-03T09:43:17.245Z,21.35
2022-09-03T09:45:46.929Z,20.90
2022-09-03T09:48:21.319Z,20.92
2022-09-03T09:50:49.041Z,21.32
2022-09-03T09:53:21.600Z,21.52
2022-09-03T09:55:52.803Z,21.40
2022-09-03T09:58:23.893Z,21.23
2022-09-03T10:01:00.466Z,22.05
2022-09-03T10:03:29.946Z,22.77
2022-09-03T10:06:21.197Z,23.42
2022-09-03T10:08:49.401Z,23.60
2022-09-03T10:11:21.345Z,22.86
2022-09-03T10:13:50.389Z,22.07
2022-09-03T10:16:27.498Z,22.32
2022-09-03T10:19:04.104Z,22.42
2022-09-03T10:21:36.456Z,22.56
2022-09-03T10:24:20.344Z,22.17
2022-09-03T10:26:49.473Z,22.07
2022-09-03T10:29:21.192Z,22.19
2022-09-03T10:32:01.614Z,22.43
2022-09-03T10:37:15.292Z,22.90
2022-09-03T10:39:58.883Z,22.53
2022-09-03T10:42:42.357Z,22.57
2022-09-03T10:45:19.601Z,22.58
2022-09-03T10:48:18.181Z,22.70
2022-09-03T10:50:49.752Z,23.02
2022-09-03T10:53:39.652Z,23.02
2022-09-03T10:56:13.237Z,22.96
2022-09-03T10:58:52.949Z,23.35
2022-09-03T11:01:28.979Z,23.40
2022-09-03T11:04:15.144Z,22.83
2022-09-03T11:06:52.146Z,23.04
2022-09-03T11:09:24.868Z,23.38
2022-09-03T11:11:56.246Z,23.13
2022-09-03T11:14:35.179Z,23.36
2022-09-03T11:17:10.121Z,23.55
2022-09-03T11:19:48.126Z,23.43
2022-09-03T11:22:20.983Z,23.45
2022-09-03T11:24:56.573Z,23.09
2022-09-03T11:27:37.123Z,23.38
2022-09-03T11:30:08.686Z,23.20
2022-09-03T11:32:49.732Z,23.22
2022-09-03T11:35:28.848Z,23.40
2022-09-03T11:38:01.425Z,23.57
2022-09-03T11:40:35.799Z,24.42
2022-09-03T11:43:14.593Z,25.33
2022-09-03T11:45:44.253Z,25.75
2022-09-03T11:48:20.152Z,26.87
2022-09-03T11:50:55.833Z,26.64
2022-09-03T11:53:28.183Z,26.49
2022-09-03T11:55:59.823Z,25.80
2022-09-03T11:58:32.812Z,25.10
2022-09-03T12:01:03.901Z,25.36
2022-09-03T12:03:43.218Z,25.80
2022-09-03T12:06:29.209Z,25.59
2022-09-03T12:09:17.512Z,25.31
2022-09-03T12:11:58.842Z,24.89
2022-09-03T12:14:37.341Z,24.36
2022-09-03T12:17:15.019Z,23.66
2022-09-03T12:19:53.379Z,23.74
2022-09-03T12:22:24.118Z,24.50
2022-09-03T12:24:51.985Z,24.89
2022-09-03T12:27:24.609Z,25.05
2022-09-03T12:29:57.915Z,25.39
2022-09-03T12:32:30.131Z,25.86
2022-09-03T12:34:57.796Z,26.29
2022-09-03T12:40:21.988Z,26.48
2022-09-03T12:42:50.450Z,26.36
2022-09-03T12:45:22.990Z,26.15
2022-09-03T12:47:53.263Z,26.73
2022-09-03T12:50:23.275Z,26.47
2022-09-03T12:52:54.257Z,26.35
2022-09-03T12:55:34.334Z,26.79
2022-09-03T12:58:11.401Z,26.79
2022-09-03T13:00:46.531Z,26.52
2022-09-03T13:03:21.087Z,25.89
2022-09-03T13:05:53.876Z,25.70
2022-09-03T13:08:24.410Z,25.41
2022-09-03T13:10:54.650Z,25.57
2022-09-03T13:13:25.154Z,25.58
2022-09-03T13:16:01.978Z,25.86
2022-09-03T13:18:42.134Z,25.91
2022-09-03T13:21:18.743Z,26.05
2022-09-03T13:24:03.397Z,26.28
2022-09-03T13:26:43.221Z,26.70
2022-09-03T13:29:35.426Z,26.60
2022-09-03T13:32:17.197Z,27.36
2022-09-03T13:34:52.042Z,27.59
2022-09-03T13:37:26.781Z,27.67
2022-09-03T13:39:59.966Z,26.81
2022-09-03T13:42:33.598Z,26.83
2022-09-03T13:45:07.650Z,27.15
2022-09-03T13:48:02.190Z,27.48
2022-09-03T13:50:42.195Z,27.61
2022-09-03T13:53:19.454Z,27.54
2022-09-03T13:55:56.734Z,27.94
2022-09-03T13:58:30.966Z,28.25
2022-09-03T14:01:11.579Z,27.76
2022-09-03T14:03:48.952Z,27.40
2022-09-03T14:06:30.899Z,27.08
2022-09-03T14:09:07.666Z,26.99
2022-09-03T14:11:50.432Z,26.09
2022-09-03T14:14:30.599Z,26.39
2022-09-03T14:17:03.092Z,26.71
2022-09-03T14:19:40.179Z,26.55
2022-09-03T14:22:15.008Z,26.31
2022-09-03T14:24:50.161Z,25.92
2022-09-03T14:27:26.764Z,25.49
2022-09-03T14:29:59.389Z,25.25
2022-09-03T14:32:44.125Z,25.13
2022-09-03T14:35:39.567Z,24.40
2022-09-03T14:38:52.290Z,24.53
2022-09-03T14:41:37.613Z,24.57
2022-09-03T14:44:33.919Z,24.56
2022-09-03T14:47:15.214Z,24.43
2022-09-03T14:49:58.533Z,24.37
2022-09-03T14:52:54.586Z,24.34
2022-09-03T14:55:50.622Z,23.98
2022-09-03T14:58:36.228Z,23.70
2022-09-03T15:01:08.594Z,23.26
2022-09-03T15:04:04.406Z,22.77
2022-09-03T15:06:42.685Z,22.72
2022-09-03T15:09:23.874Z,22.68
2022-09-03T15:11:56.800Z,22.61
2022-09-03T15:14:31.034Z,22.62
2022-09-03T15:17:01.936Z,22.64
2022-09-03T15:19:58.201Z,22.64
2022-09-03T15:22:43.991Z,22.78
2022-09-03T15:25:23.971Z,22.71
2022-09-03T15:28:06.850Z,22.42
2022-09-03T15:30:40.900Z,22.38
2022-09-03T15:33:22.128Z,22.09
2022-09-03T15:36:12.625Z,21.94
2022-09-03T15:38:46.193Z,21.93
2022-09-03T15:41:33.696Z,21.74
2022-09-03T15:44:03.343Z,21.68
2022-09-03T15:46:39.488Z,21.57
2022-09-03T15:49:19.306Z,21.32
2022-09-03T15:51:57.531Z,21.23
2022-09-03T15:54:37.255Z,21.09
2022-09-03T15:57:11.119Z,20.90
2022-09-03T15:59:42.547Z,20.94
2022-09-03T16:02:16.035Z,20.67
2022-09-03T16:05:09.945Z,20.68
2022-09-03T16:07:56.299Z,20.74
2022-09-03T16:10:39.115Z,20.82
2022-09-03T16:13:14.734Z,20.84
2022-09-03T16:15:47.070Z,20.85
2022-09-03T16:18:24.336Z,20.88
2022-09-03T16:20:59.930Z,20.94
2022-09-03T16:23:33.536Z,20.98
2022-09-03T16:26:06.235Z,21.09
2022-09-03T16:28:42.912Z,20.91
2022-09-03T16:31:21.284Z,20.71
2022-09-03T16:34:01.607Z,20.65
2022-09-03T16:36:42.241Z,20.54
2022-09-03T16:39:20.654Z,20.63
2022-09-03T16:41:57.286Z,20.63
2022-09-03T16:44:33.778Z,20.53
2022-09-03T16:47:10.049Z,20.18
2022-09-03T16:49:55.673Z,20.14
2022-09-03T16:52:39.431Z,20.20
2022-09-03T16:55:22.572Z,20.21
2022-09-03T16:58:01.621Z,20.29
2022-09-03T17:00:45.561Z,20.74
2022-09-03T17:03:41.019Z,20.95
2022-09-03T17:06:25.958Z,21.34
2022-09-03T17:09:02.227Z,21.59
2022-09-03T17:12:00.305Z,21.79
2022-09-03T17:15:01.548Z,21.73
2022-09-03T17:17:48.705Z,21.77
2022-09-03T17:20:22.598Z,21.70
2022-09-03T17:23:09.642Z,21.46
2022-09-03T17:25:39.029Z,21.54
2022-09-03T17:28:22.645Z,21.54
2022-09-03T17:30:58.022Z,21.52
2022-09-03T17:33:47.415Z,21.40
2022-09-03T17:36:18.518Z,20.97
2022-09-03T17:39:22.274Z,20.97
2022-09-03T17:41:53.816Z,21.01
2022-09-03T17:44:47.280Z,20.78
2022-09-03T17:47:35.213Z,20.65
2022-09-03T17:50:14.058Z,20.63
2022-09-03T17:52:48.490Z,20.64
2022-09-03T17:55:25.315Z,20.60
2022-09-03T17:57:58.897Z,20.57
2022-09-03T18:00:34.951Z,20.32
2022-09-03T18:03:09.698Z,20.04
2022-09-03T18:05:46.941Z,19.96
2022-09-03T18:08:23.089Z,19.77
2022-09-03T18:11:08.242Z,19.64
2022-09-03T18:13:47.534Z,19.49
2022-09-03T18:16:20.691Z,19.40
2022-09-03T18:18:52.137Z,19.35
2022-09-03T18:21:41.308Z,19.41
2022-09-03T18:24:42.213Z,19.39
2022-09-03T18:27:33.683Z,19.31
2022-09-03T18:30:22.686Z,19.19
2022-09-03T18:33:08.159Z,19.10
2022-09-03T18:35:53.754Z,19.08
2022-09-03T18:38:44.128Z,19.01
2022-09-03T18:41:43.306Z,18.92
2022-09-03T18:44:39.054Z,18.83
2022-09-03T18:51:02.080Z,18.85
2022-09-03T18:53:58.576Z,18.74
2022-09-03T18:56:53.818Z,18.84
2022-09-03T19:00:00.703Z,18.74
2022-09-03T19:02:52.164Z,18.73
2022-09-03T19:05:44.647Z,18.69
2022-09-03T19:08:36.701Z,18.57
2022-09-03T19:11:27.742Z,18.54
2022-09-03T19:14:16.626Z,18.50
2022-09-03T19:17:18.677Z,18.39
2022-09-03T19:20:20.261Z,18.40
2022-09-03T19:23:05.534Z,18.29
2022-09-03T19:25:50.953Z,18.28
2022-09-03T19:28:37.993Z,18.16
2022-09-03T19:31:49.678Z,18.14
2022-09-03T19:35:00.993Z,18.10
2022-09-03T19:37:53.934Z,18.13
2022-09-03T19:41:08.591Z,18.04
2022-09-03T19:44:03.969Z,18.02
2022-09-03T19:46:58.493Z,18.03
2022-09-03T19:49:57.409Z,17.96
2022-09-03T19:52:48.015Z,17.91
2022-09-03T19:55:34.778Z,17.87
2022-09-03T19:58:39.536Z,17.85
2022-09-03T20:01:25.286Z,17.88
2022-09-03T20:04:10.648Z,17.91
2022-09-03T20:06:57.298Z,17.74
2022-09-03T20:09:44.812Z,17.72
2022-09-03T20:12:14.389Z,17.74
2022-09-03T20:14:41.943Z,17.70
2022-09-03T20:17:14.320Z,17.65
2022-09-03T20:19:57.383Z,17.66
2022-09-03T20:22:29.743Z,17.71
2022-09-03T20:25:05.074Z,17.61
2022-09-03T20:27:39.958Z,17.63
2022-09-03T20:30:11.856Z,17.75
2022-09-03T20:33:11.179Z,17.73
2022-09-03T20:35:51.903Z,17.60
2022-09-03T20:38:38.284Z,17.61
2022-09-03T20:41:18.171Z,17.60
2022-09-03T20:44:00.783Z,17.63
2022-09-03T20:46:46.074Z,17.55
2022-09-03T20:49:26.263Z,17.40
2022-09-03T20:52:06.046Z,17.41
2022-09-03T20:54:38.867Z,17.51
2022-09-03T20:57:26.907Z,17.38
2022-09-03T21:00:05.631Z,17.34
2022-09-03T21:02:55.202Z,17.37
2022-09-03T21:05:28.046Z,17.30
2022-09-03T21:08:08.784Z,17.23
2022-09-03T21:10:46.385Z,17.32
2022-09-03T21:13:22.970Z,17.21
2022-09-03T21:15:59.103Z,17.23
2022-09-03T21:18:38.486Z,17.21
2022-09-03T21:21:20.112Z,17.23
2022-09-03T21:23:56.577Z,17.25
2022-09-03T21:26:29.272Z,17.23
2022-09-03T21:29:03.399Z,17.18
2022-09-03T21:31:38.575Z,17.16
2022-09-03T21:34:12.513Z,17.08
2022-09-03T21:36:42.677Z,17.04
2022-09-03T21:39:15.857Z,17.06
2022-09-03T21:41:54.246Z,17.11
2022-09-03T21:44:43.598Z,17.11
2022-09-03T21:47:12.682Z,17.16
2022-09-03T21:50:00.013Z,17.19
2022-09-03T21:52:34.709Z,17.22
2022-09-03T21:55:04.331Z,17.18
2022-09-03T21:57:41.144Z,17.21
2022-09-03T22:00:18.618Z,17.11
2022-09-03T22:02:47.267Z,17.29
2022-09-03T22:05:16.245Z,17.27
2022-09-03T22:08:14.343Z,17.28
2022-09-03T22:10:54.943Z,17.27
2022-09-03T22:13:31.029Z,17.29
2022-09-03T22:16:07.140Z,17.26
2022-09-03T22:18:37.889Z,17.30
2022-09-03T22:21:14.219Z,17.24
2022-09-03T22:23:55.717Z,17.22
2022-09-03T22:26:38.202Z,17.18
2022-09-03T22:29:15.420Z,17.10
2022-09-03T22:31:52.421Z,17.08
2022-09-03T22:34:31.233Z,17.02
2022-09-03T22:37:03.688Z,16.96
2022-09-03T22:39:37.392Z,16.98
2022-09-03T22:42:31.656Z,16.97
2022-09-03T22:45:24.922Z,16.97
2022-09-03T22:48:03.437Z,17.00
2022-09-03T22:50:35.138Z,17.06
2022-09-03T22:53:17.873Z,16.98
2022-09-03T22:55:51.842Z,16.94
2022-09-03T22:58:24.074Z,16.89
2022-09-03T23:01:00.054Z,16.88
2022-09-03T23:03:36.912Z,17.05
2022-09-03T23:06:07.791Z,17.23
2022-09-03T23:08:42.265Z,17.15
2022-09-03T23:11:25.702Z,17.07
2022-09-03T23:14:01.430Z,16.98
2022-09-03T23:16:38.801Z,16.98
2022-09-03T23:21:52.327Z,16.83
2022-09-03T23:24:26.638Z,16.86
2022-09-03T23:26:54.919Z,16.77
2022-09-03T23:29:27.951Z,16.72
2022-09-03T23:31:59.679Z,16.66
2022-09-03T23:34:28.464Z,16.69
2022-09-03T23:40:19.339Z,16.52
2022-09-03T23:43:13.676Z,16.51
2022-09-03T23:45:49.788Z,16.37
2022-09-03T23:48:26.294Z,16.27
2022-09-03T23:51:09.601Z,16.25
2022-09-03T23:53:46.793Z,16.23
2022-09-03T23:56:45.486Z,16.21
2022-09-03T23:59:21.052Z,16.26
